sensor_id;sensor_type;location;lat;lon;timestamp;pressure;altitude;pressure_sealevel;temperature;humidity
58769;BME280;44536;47.474;19.056;2023-04-08T00:02:02;100723.59;;;2.90;100.00
58769;BME280;44536;47.474;19.056;2023-04-08T00:05:05;100724.84;;;2.80;100.00
58769;BME280;44536;47.474;19.056;2023-04-08T00:08:07;100722.44;;;2.97;100.00
58769;BME280;44536;47.474;19.056;2023-04-08T00:11:10;100715.00;;;2.86;100.00
58769;BME280;44536;47.474;19.056;2023-04-08T00:14:12;100722.59;;;2.71;100.00
58769;BME280;44536;47.474;19.056;2023-04-08T00:17:15;100721.72;;;2.93;100.00
58769;BME280;44536;47.474;19.056;2023-04-08T00:20:17;100726.44;;;2.84;100.00
58769;BME280;44536;47.474;19.056;2023-04-08T00:23:20;100727.72;;;2.74;100.00
58769;BME280;44536;47.474;19.056;2023-04-08T00:26:22;100729.41;;;2.75;100.00
58769;BME280;44536;47.474;19.056;2023-04-08T00:29:25;100725.06;;;2.97;100.00
58769;BME280;44536;47.474;19.056;2023-04-08T00:32:27;100719.78;;;2.98;100.00
58769;BME280;44536;47.474;19.056;2023-04-08T00:35:31;100720.88;;;2.93;100.00
58769;BME280;44536;47.474;19.056;2023-04-08T00:38:33;100721.78;;;2.92;100.00
58769;BME280;44536;47.474;19.056;2023-04-08T00:41:36;100728.94;;;2.87;100.00
58769;BME280;44536;47.474;19.056;2023-04-08T00:44:38;100725.72;;;2.80;100.00
58769;BME280;44536;47.474;19.056;2023-04-08T00:47:41;100724.41;;;2.69;100.00
58769;BME280;44536;47.474;19.056;2023-04-08T00:50:43;100728.75;;;2.70;100.00
58769;BME280;44536;47.474;19.056;2023-04-08T00:53:47;100724.50;;;2.89;100.00
58769;BME280;44536;47.474;19.056;2023-04-08T00:56:49;100734.47;;;2.79;100.00
58769;BME280;44536;47.474;19.056;2023-04-08T00:59:52;100728.84;;;2.90;100.00
58769;BME280;44536;47.474;19.056;2023-04-08T01:03:17;100731.56;;;2.87;100.00
58769;BME280;44536;47.474;19.056;2023-04-08T01:06:38;100737.72;;;2.86;100.00
58769;BME280;44536;47.474;19.056;2023-04-08T01:09:46;100724.56;;;2.87;100.00
58769;BME280;44536;47.474;19.056;2023-04-08T01:12:55;100729.94;;;2.84;100.00
58769;BME280;44536;47.474;19.056;2023-04-08T01:15:57;100727.12;;;2.89;100.00
58769;BME280;44536;47.474;19.056;2023-04-08T01:19:01;100729.00;;;2.85;100.00
58769;BME280;44536;47.474;19.056;2023-04-08T01:22:26;100730.72;;;2.86;100.00
58769;BME280;44536;47.474;19.056;2023-04-08T01:25:37;100729.34;;;2.76;100.00
58769;BME280;44536;47.474;19.056;2023-04-08T01:28:40;100733.34;;;2.86;100.00
58769;BME280;44536;47.474;19.056;2023-04-08T01:31:46;100725.25;;;2.92;100.00
58769;BME280;44536;47.474;19.056;2023-04-08T01:34:48;100731.50;;;2.88;100.00
58769;BME280;44536;47.474;19.056;2023-04-08T01:37:52;100727.12;;;2.89;100.00
58769;BME280;44536;47.474;19.056;2023-04-08T01:40:56;100735.84;;;2.89;100.00
58769;BME280;44536;47.474;19.056;2023-04-08T01:43:59;100720.81;;;2.94;100.00
58769;BME280;44536;47.474;19.056;2023-04-08T01:47:04;100731.50;;;2.88;100.00
58769;BME280;44536;47.474;19.056;2023-04-08T01:50:08;100725.13;;;2.95;100.00
58769;BME280;44536;47.474;19.056;2023-04-08T01:53:10;100724.34;;;2.93;100.00
58769;BME280;44536;47.474;19.056;2023-04-08T01:56:14;100723.72;;;2.87;100.00
58769;BME280;44536;47.474;19.056;2023-04-08T01:59:17;100719.28;;;2.89;100.00
58769;BME280;44536;47.474;19.056;2023-04-08T02:02:23;100727.38;;;2.83;100.00
58769;BME280;44536;47.474;19.056;2023-04-08T02:05:28;100727.06;;;2.90;100.00
58769;BME280;44536;47.474;19.056;2023-04-08T02:08:33;100725.37;;;2.89;100.00
58769;BME280;44536;47.474;19.056;2023-04-08T02:11:37;100725.72;;;2.80;100.00
58769;BME280;44536;47.474;19.056;2023-04-08T02:14:39;100718.78;;;2.79;100.00
58769;BME280;44536;47.474;19.056;2023-04-08T02:17:46;100725.84;;;2.77;100.00
58769;BME280;44536;47.474;19.056;2023-04-08T02:21:26;100725.72;;;2.80;100.00
58769;BME280;44536;47.474;19.056;2023-04-08T02:24:26;100719.63;;;2.80;100.00
58769;BME280;44536;47.474;19.056;2023-04-08T02:27:33;100724.81;;;2.81;100.00
58769;BME280;44536;47.474;19.056;2023-04-08T02:30:40;100731.28;;;2.71;100.00
58769;BME280;44536;47.474;19.056;2023-04-08T02:33:43;100715.28;;;2.79;100.00
58769;BME280;44536;47.474;19.056;2023-04-08T02:36:47;100718.03;;;2.76;100.00
58769;BME280;44536;47.474;19.056;2023-04-08T02:39:50;100717.12;;;2.77;100.00
58769;BME280;44536;47.474;19.056;2023-04-08T02:42:54;100716.88;;;2.83;100.00
58769;BME280;44536;47.474;19.056;2023-04-08T02:45:58;100709.66;;;2.89;100.00
58769;BME280;44536;47.474;19.056;2023-04-08T02:49:04;100714.78;;;2.92;100.00
58769;BME280;44536;47.474;19.056;2023-04-08T02:52:07;100720.19;;;2.88;100.00
58769;BME280;44536;47.474;19.056;2023-04-08T02:55:09;100710.06;;;2.79;100.00
58769;BME280;44536;47.474;19.056;2023-04-08T02:58:12;100719.75;;;2.77;100.00
58769;BME280;44536;47.474;19.056;2023-04-08T03:01:14;100721.72;;;2.70;100.00
58769;BME280;44536;47.474;19.056;2023-04-08T03:04:17;100721.09;;;2.87;100.00
58769;BME280;44536;47.474;19.056;2023-04-08T03:07:19;100718.81;;;2.78;100.00
58769;BME280;44536;47.474;19.056;2023-04-08T03:10:22;100723.22;;;2.77;100.00
58769;BME280;44536;47.474;19.056;2023-04-08T03:13:24;100722.25;;;2.80;100.00
58769;BME280;44536;47.474;19.056;2023-04-08T03:16:27;100726.84;;;2.73;100.00
58769;BME280;44536;47.474;19.056;2023-04-08T03:19:29;100729.97;;;2.83;100.00
58769;BME280;44536;47.474;19.056;2023-04-08T03:22:32;100726.00;;;2.73;100.00
58769;BME280;44536;47.474;19.056;2023-04-08T03:25:35;100722.00;;;2.86;100.00
58769;BME280;44536;47.474;19.056;2023-04-08T03:28:37;100732.53;;;2.84;100.00
58769;BME280;44536;47.474;19.056;2023-04-08T03:31:40;100727.31;;;2.84;100.00
58769;BME280;44536;47.474;19.056;2023-04-08T03:34:42;100732.53;;;2.84;100.00
58769;BME280;44536;47.474;19.056;2023-04-08T03:37:45;100739.59;;;2.82;100.00
58769;BME280;44536;47.474;19.056;2023-04-08T03:40:47;100740.16;;;2.90;100.00
58769;BME280;44536;47.474;19.056;2023-04-08T03:43:50;100739.53;;;2.84;100.00
58769;BME280;44536;47.474;19.056;2023-04-08T03:46:52;100743.19;;;2.80;100.00
58769;BME280;44536;47.474;19.056;2023-04-08T03:49:55;100747.41;;;2.84;100.00
58769;BME280;44536;47.474;19.056;2023-04-08T03:52:57;100746.59;;;2.82;100.00
58769;BME280;44536;47.474;19.056;2023-04-08T03:55:59;100751.22;;;2.75;100.00
58769;BME280;44536;47.474;19.056;2023-04-08T03:59:03;100743.38;;;2.75;100.00
58769;BME280;44536;47.474;19.056;2023-04-08T04:02:06;100753.72;;;2.78;100.00
58769;BME280;44536;47.474;19.056;2023-04-08T04:05:09;100748.19;;;2.86;100.00
58769;BME280;44536;47.474;19.056;2023-04-08T04:08:11;100753.59;;;2.81;100.00
58769;BME280;44536;47.474;19.056;2023-04-08T04:11:13;100760.91;;;2.73;100.00
58769;BME280;44536;47.474;19.056;2023-04-08T04:14:16;100761.41;;;2.83;100.00
58769;BME280;44536;47.474;19.056;2023-04-08T04:17:18;100768.63;;;2.76;100.00
58769;BME280;44536;47.474;19.056;2023-04-08T04:20:20;100771.25;;;2.76;100.00
58769;BME280;44536;47.474;19.056;2023-04-08T04:23:23;100767.38;;;2.86;100.00
58769;BME280;44536;47.474;19.056;2023-04-08T04:26:26;100773.66;;;2.82;100.00
58769;BME280;44536;47.474;19.056;2023-04-08T04:29:30;100776.22;;;2.84;100.00
58769;BME280;44536;47.474;19.056;2023-04-08T04:32:32;100777.97;;;2.83;100.00
58769;BME280;44536;47.474;19.056;2023-04-08T04:35:35;100775.53;;;2.79;100.00
58769;BME280;44536;47.474;19.056;2023-04-08T04:38:37;100775.87;;;2.70;100.00
58769;BME280;44536;47.474;19.056;2023-04-08T04:41:40;100772.13;;;2.77;100.00
58769;BME280;44536;47.474;19.056;2023-04-08T04:44:42;100771.38;;;2.73;100.00
58769;BME280;44536;47.474;19.056;2023-04-08T04:47:45;100775.63;;;2.76;100.00
58769;BME280;44536;47.474;19.056;2023-04-08T04:50:55;100779.16;;;2.75;100.00
58769;BME280;44536;47.474;19.056;2023-04-08T04:53:58;100784.47;;;2.73;100.00
58769;BME280;44536;47.474;19.056;2023-04-08T04:57:00;100780.72;;;2.80;100.00
58769;BME280;44536;47.474;19.056;2023-04-08T05:00:03;100780.53;;;2.85;100.00
58769;BME280;44536;47.474;19.056;2023-04-08T05:03:06;100785.66;;;2.88;100.00
58769;BME280;44536;47.474;19.056;2023-04-08T05:06:09;100787.25;;;2.92;100.00
58769;BME280;44536;47.474;19.056;2023-04-08T05:09:12;100785.44;;;2.94;100.00
58769;BME280;44536;47.474;19.056;2023-04-08T05:12:14;100791.88;;;2.85;100.00
58769;BME280;44536;47.474;19.056;2023-04-08T05:15:17;100783.72;;;2.93;100.00
58769;BME280;44536;47.474;19.056;2023-04-08T05:18:19;100794.09;;;2.96;100.00
58769;BME280;44536;47.474;19.056;2023-04-08T05:21:21;100790.72;;;2.92;100.00
58769;BME280;44536;47.474;19.056;2023-04-08T05:24:25;100800.25;;;2.95;100.00
58769;BME280;44536;47.474;19.056;2023-04-08T05:27:27;100800.69;;;2.83;100.00
58769;BME280;44536;47.474;19.056;2023-04-08T05:30:29;100803.09;;;2.89;100.00
58769;BME280;44536;47.474;19.056;2023-04-08T05:33:32;100807.97;;;2.98;100.00
58769;BME280;44536;47.474;19.056;2023-04-08T05:36:35;100808.91;;;2.97;100.00
58769;BME280;44536;47.474;19.056;2023-04-08T05:39:37;100808.91;;;2.97;100.00
58769;BME280;44536;47.474;19.056;2023-04-08T05:42:39;100810.66;;;2.96;100.00
58769;BME280;44536;47.474;19.056;2023-04-08T05:45:43;100810.88;;;2.90;100.00
58769;BME280;44536;47.474;19.056;2023-04-08T05:48:46;100826.22;;;3.01;100.00
58769;BME280;44536;47.474;19.056;2023-04-08T05:51:48;100822.72;;;3.01;100.00
58769;BME280;44536;47.474;19.056;2023-04-08T05:54:50;100812.47;;;2.94;100.00
58769;BME280;44536;47.474;19.056;2023-04-08T05:57:52;100820.13;;;3.01;100.00
58769;BME280;44536;47.474;19.056;2023-04-08T06:00:55;100814.59;;;3.08;100.00
58769;BME280;44536;47.474;19.056;2023-04-08T06:03:58;100826.56;;;3.14;100.00
58769;BME280;44536;47.474;19.056;2023-04-08T06:07:00;100824.09;;;3.11;100.00
58769;BME280;44536;47.474;19.056;2023-04-08T06:10:04;100824.31;;;3.05;100.00
58769;BME280;44536;47.474;19.056;2023-04-08T06:13:08;100826.94;;;3.05;100.00
58769;BME280;44536;47.474;19.056;2023-04-08T06:16:14;100826.16;;;3.03;100.00
58769;BME280;44536;47.474;19.056;2023-04-08T06:19:22;100830.41;;;3.05;100.00
58769;BME280;44536;47.474;19.056;2023-04-08T06:22:26;100833.84;;;3.07;100.00
58769;BME280;44536;47.474;19.056;2023-04-08T06:25:29;100832.88;;;3.10;100.00
58769;BME280;44536;47.474;19.056;2023-04-08T06:28:31;100837.47;;;3.03;100.00
58769;BME280;44536;47.474;19.056;2023-04-08T06:31:34;100842.16;;;2.95;100.00
58769;BME280;44536;47.474;19.056;2023-04-08T06:34:36;100847.59;;;2.89;100.00
58769;BME280;44536;47.474;19.056;2023-04-08T06:37:39;100849.91;;;2.98;100.00
58769;BME280;44536;47.474;19.056;2023-04-08T06:40:41;100852.62;;;2.95;100.00
58769;BME280;44536;47.474;19.056;2023-04-08T06:43:44;100860.47;;;2.95;100.00
58769;BME280;44536;47.474;19.056;2023-04-08T06:46:46;100863.28;;;2.90;100.00
58769;BME280;44536;47.474;19.056;2023-04-08T06:49:49;100863.06;;;2.96;100.00
58769;BME280;44536;47.474;19.056;2023-04-08T06:52:51;100861.41;;;2.94;100.00
58769;BME280;44536;47.474;19.056;2023-04-08T06:55:54;100867.59;;;2.91;100.00
58769;BME280;44536;47.474;19.056;2023-04-08T06:58:56;100861.41;;;2.94;100.00
58769;BME280;44536;47.474;19.056;2023-04-08T07:01:59;100861.28;;;2.97;100.00
58769;BME280;44536;47.474;19.056;2023-04-08T07:05:01;100857.75;;;2.98;100.00
58769;BME280;44536;47.474;19.056;2023-04-08T07:08:04;100865.62;;;2.98;100.00
58769;BME280;44536;47.474;19.056;2023-04-08T07:11:07;100858.56;;;3.00;100.00
58769;BME280;44536;47.474;19.056;2023-04-08T07:14:10;100869.56;;;3.10;100.00
58769;BME280;44536;47.474;19.056;2023-04-08T07:17:13;100863.31;;;3.12;100.00
58769;BME280;44536;47.474;19.056;2023-04-08T07:20:16;100879.12;;;3.11;100.00
58769;BME280;44536;47.474;19.056;2023-04-08T07:23:19;100865.03;;;3.13;100.00
58769;BME280;44536;47.474;19.056;2023-04-08T07:26:22;100872.03;;;3.13;100.00
58769;BME280;44536;47.474;19.056;2023-04-08T07:29:24;100875.44;;;3.15;100.00
58769;BME280;44536;47.474;19.056;2023-04-08T07:32:27;100877.91;;;3.19;100.00
58769;BME280;44536;47.474;19.056;2023-04-08T07:35:32;100882.34;;;3.17;100.00
58769;BME280;44536;47.474;19.056;2023-04-08T07:38:34;100897.25;;;3.15;100.00
58769;BME280;44536;47.474;19.056;2023-04-08T07:41:37;100895.50;;;3.16;100.00
58769;BME280;44536;47.474;19.056;2023-04-08T07:44:39;100896.34;;;3.16;100.00
58769;BME280;44536;47.474;19.056;2023-04-08T07:47:43;100898.37;;;3.10;100.00
58769;BME280;44536;47.474;19.056;2023-04-08T07:50:45;100910.47;;;3.12;100.00
58769;BME280;44536;47.474;19.056;2023-04-08T07:54:08;100909.50;;;3.15;100.00
58769;BME280;44536;47.474;19.056;2023-04-08T07:57:13;100915.28;;;3.24;100.00
58769;BME280;44536;47.474;19.056;2023-04-08T08:00:16;100912.66;;;3.24;100.00
58769;BME280;44536;47.474;19.056;2023-04-08T08:03:23;100911.97;;;3.19;100.00
58769;BME280;44536;47.474;19.056;2023-04-08T08:06:25;100916.97;;;3.25;100.00
58769;BME280;44536;47.474;19.056;2023-04-08T08:09:29;100909.84;;;3.29;100.00
58769;BME280;44536;47.474;19.056;2023-04-08T08:12:33;100921.66;;;3.41;100.00
58769;BME280;44536;47.474;19.056;2023-04-08T08:15:35;100917.03;;;3.47;100.00
58769;BME280;44536;47.474;19.056;2023-04-08T08:18:38;100912.72;;;3.46;100.00
58769;BME280;44536;47.474;19.056;2023-04-08T08:21:41;100914.31;;;3.50;100.00
58769;BME280;44536;47.474;19.056;2023-04-08T08:24:44;100919.59;;;3.49;100.00
58769;BME280;44536;47.474;19.056;2023-04-08T08:27:46;100919.09;;;3.62;100.00
58769;BME280;44536;47.474;19.056;2023-04-08T08:30:48;100929.19;;;3.50;100.00
58769;BME280;44536;47.474;19.056;2023-04-08T08:33:52;100937.03;;;3.50;100.00
58769;BME280;44536;47.474;19.056;2023-04-08T08:36:54;100930.78;;;3.54;100.00
58769;BME280;44536;47.474;19.056;2023-04-08T08:39:57;100932.81;;;3.46;100.00
58769;BME280;44536;47.474;19.056;2023-04-08T08:42:59;100937.28;;;3.65;100.00
58769;BME280;44536;47.474;19.056;2023-04-08T08:46:02;100932.84;;;3.67;100.00
58769;BME280;44536;47.474;19.056;2023-04-08T08:49:05;100936.38;;;3.66;100.00
58769;BME280;44536;47.474;19.056;2023-04-08T08:52:07;100937.28;;;3.65;100.00
58769;BME280;44536;47.474;19.056;2023-04-08T08:55:11;100937.97;;;3.71;100.00
58769;BME280;44536;47.474;19.056;2023-04-08T08:58:33;100947.31;;;3.78;100.00
58769;BME280;44536;47.474;19.056;2023-04-08T09:01:37;100947.59;;;3.93;100.00
58769;BME280;44536;47.474;19.056;2023-04-08T09:04:55;100954.59;;;3.93;100.00
58769;BME280;44536;47.474;19.056;2023-04-08T09:07:57;100952.03;;;3.91;100.00
58769;BME280;44536;47.474;19.056;2023-04-08T09:14:20;100955.81;;;3.84;100.00
58769;BME280;44536;47.474;19.056;2023-04-08T09:17:38;100962.13;;;4.02;100.00
58769;BME280;44536;47.474;19.056;2023-04-08T09:20:51;100959.00;;;3.92;100.00
58769;BME280;44536;47.474;19.056;2023-04-08T09:23:53;100974.06;;;3.87;100.00
58769;BME280;44536;47.474;19.056;2023-04-08T09:26:56;100970.62;;;3.85;100.00
58769;BME280;44536;47.474;19.056;2023-04-08T09:30:28;100972.50;;;4.05;100.00
58769;BME280;44536;47.474;19.056;2023-04-08T09:33:33;100975.16;;;4.04;100.00
58769;BME280;44536;47.474;19.056;2023-04-08T09:36:35;100976.19;;;4.21;100.00
58769;BME280;44536;47.474;19.056;2023-04-08T09:39:37;100968.63;;;4.36;100.00
58769;BME280;44536;47.474;19.056;2023-04-08T09:42:44;100980.09;;;4.33;100.00
58769;BME280;44536;47.474;19.056;2023-04-08T09:45:47;100980.16;;;4.31;100.00
58769;BME280;44536;47.474;19.056;2023-04-08T09:49:06;100982.34;;;4.20;100.00
58769;BME280;44536;47.474;19.056;2023-04-08T09:52:27;100986.59;;;4.03;100.00
58769;BME280;44536;47.474;19.056;2023-04-08T09:55:35;100991.22;;;3.96;100.00
58769;BME280;44536;47.474;19.056;2023-04-08T09:58:57;100985.91;;;3.97;100.00
58769;BME280;44536;47.474;19.056;2023-04-08T10:02:06;100983.97;;;4.03;100.00
58769;BME280;44536;47.474;19.056;2023-04-08T10:05:11;100986.47;;;4.06;100.00
58769;BME280;44536;47.474;19.056;2023-04-08T10:08:14;100993.88;;;4.16;100.00
58769;BME280;44536;47.474;19.056;2023-04-08T10:11:17;100989.25;;;4.01;100.00
58769;BME280;44536;47.474;19.056;2023-04-08T10:14:19;100994.69;;;3.96;100.00
58769;BME280;44536;47.474;19.056;2023-04-08T10:17:25;100993.78;;;3.97;100.00
58769;BME280;44536;47.474;19.056;2023-04-08T10:23:53;100992.13;;;4.17;100.00
58769;BME280;44536;47.474;19.056;2023-04-08T10:26:56;100985.38;;;4.11;100.00
58769;BME280;44536;47.474;19.056;2023-04-08T10:29:59;100990.00;;;4.05;100.00
58769;BME280;44536;47.474;19.056;2023-04-08T10:33:08;100988.72;;;3.93;100.00
58769;BME280;44536;47.474;19.056;2023-04-08T10:36:11;100995.44;;;4.00;100.00
58769;BME280;44536;47.474;19.056;2023-04-08T10:39:15;100986.47;;;4.06;100.00
58769;BME280;44536;47.474;19.056;2023-04-08T10:42:18;100989.31;;;3.99;100.00
58769;BME280;44536;47.474;19.056;2023-04-08T10:45:20;100987.84;;;3.92;100.00
58769;BME280;44536;47.474;19.056;2023-04-08T10:48:24;100990.91;;;4.04;100.00
58769;BME280;44536;47.474;19.056;2023-04-08T10:51:29;100991.22;;;3.96;100.00
58769;BME280;44536;47.474;19.056;2023-04-08T10:54:35;100994.62;;;3.98;100.00
58769;BME280;44536;47.474;19.056;2023-04-08T10:57:38;100994.13;;;3.88;100.00
58769;BME280;44536;47.474;19.056;2023-04-08T11:00:42;100996.75;;;3.88;100.00
58769;BME280;44536;47.474;19.056;2023-04-08T11:03:44;101004.09;;;3.79;100.00
58769;BME280;44536;47.474;19.056;2023-04-08T11:06:48;100995.66;;;3.94;100.00
58769;BME280;44536;47.474;19.056;2023-04-08T11:09:51;100994.25;;;3.85;100.00
58769;BME280;44536;47.474;19.056;2023-04-08T11:12:54;100996.00;;;4.08;100.00
58769;BME280;44536;47.474;19.056;2023-04-08T11:15:58;100994.75;;;4.17;100.00
58769;BME280;44536;47.474;19.056;2023-04-08T11:19:02;100998.34;;;4.36;100.00
58769;BME280;44536;47.474;19.056;2023-04-08T11:22:06;100995.84;;;4.33;100.00
58769;BME280;44536;47.474;19.056;2023-04-08T11:25:10;100990.34;;;4.39;100.00
58769;BME280;44536;47.474;19.056;2023-04-08T11:28:13;100992.66;;;4.47;100.00
58769;BME280;44536;47.474;19.056;2023-04-08T11:31:17;101000.91;;;4.59;100.00
58769;BME280;44536;47.474;19.056;2023-04-08T11:34:22;100998.72;;;4.69;100.00
58769;BME280;44536;47.474;19.056;2023-04-08T11:37:25;100994.88;;;4.57;100.00
58769;BME280;44536;47.474;19.056;2023-04-08T11:40:30;101000.78;;;4.41;100.00
58769;BME280;44536;47.474;19.056;2023-04-08T11:43:33;100997.25;;;4.63;100.00
58769;BME280;44536;47.474;19.056;2023-04-08T11:46:37;101005.12;;;4.42;100.00
58769;BME280;44536;47.474;19.056;2023-04-08T11:49:46;101002.69;;;4.37;100.00
58769;BME280;44536;47.474;19.056;2023-04-08T11:52:49;101002.25;;;4.26;100.00
58769;BME280;44536;47.474;19.056;2023-04-08T11:55:52;101004.59;;;4.33;100.00
58769;BME280;44536;47.474;19.056;2023-04-08T11:58:54;101003.19;;;4.47;100.00
58769;BME280;44536;47.474;19.056;2023-04-08T12:01:58;100996.09;;;4.49;100.00
58769;BME280;44536;47.474;19.056;2023-04-08T12:05:01;100999.22;;;4.37;100.00
58769;BME280;44536;47.474;19.056;2023-04-08T12:08:03;101000.25;;;4.32;100.00
58769;BME280;44536;47.474;19.056;2023-04-08T12:11:06;100998.84;;;4.24;100.00
58769;BME280;44536;47.474;19.056;2023-04-08T12:14:21;100989.50;;;4.39;100.00
58769;BME280;44536;47.474;19.056;2023-04-08T12:17:29;100998.47;;;4.33;100.00
58769;BME280;44536;47.474;19.056;2023-04-08T12:20:31;100995.84;;;4.33;100.00
58769;BME280;44536;47.474;19.056;2023-04-08T12:23:34;101000.31;;;4.31;100.00
58769;BME280;44536;47.474;19.056;2023-04-08T12:26:36;100996.75;;;4.32;100.00
58769;BME280;44536;47.474;19.056;2023-04-08T12:29:39;100994.94;;;4.56;100.00
58769;BME280;44536;47.474;19.056;2023-04-08T12:32:41;100989.22;;;4.87;100.00
58769;BME280;44536;47.474;19.056;2023-04-08T12:35:47;100987.06;;;4.96;100.00
58769;BME280;44536;47.474;19.056;2023-04-08T12:38:49;100987.31;;;4.90;100.00
58769;BME280;44536;47.474;19.056;2023-04-08T12:41:52;100992.31;;;4.96;100.00
58769;BME280;44536;47.474;19.056;2023-04-08T12:44:55;100991.09;;;5.24;100.00
58769;BME280;44536;47.474;19.056;2023-04-08T12:47:57;100997.44;;;5.20;100.00
58769;BME280;44536;47.474;19.056;2023-04-08T12:51:00;100994.94;;;4.96;100.00
58769;BME280;44536;47.474;19.056;2023-04-08T12:54:03;100991.50;;;4.74;100.00
58769;BME280;44536;47.474;19.056;2023-04-08T12:57:05;100986.81;;;4.62;100.00
58769;BME280;44536;47.474;19.056;2023-04-08T13:00:08;100988.94;;;4.52;100.00
58769;BME280;44536;47.474;19.056;2023-04-08T13:03:12;100993.88;;;4.60;100.00
58769;BME280;44536;47.474;19.056;2023-04-08T13:06:17;100990.53;;;4.56;100.00
58769;BME280;44536;47.474;19.056;2023-04-08T13:09:19;100988.38;;;4.66;100.00
58769;BME280;44536;47.474;19.056;2023-04-08T13:12:22;100989.41;;;4.62;100.00
58769;BME280;44536;47.474;19.056;2023-04-08T13:15:24;100990.22;;;4.42;100.00
58769;BME280;44536;47.474;19.056;2023-04-08T13:18:29;100995.06;;;4.31;100.00
58769;BME280;44536;47.474;19.056;2023-04-08T13:21:32;100992.50;;;4.29;100.00
58769;BME280;44536;47.474;19.056;2023-04-08T13:24:34;100993.84;;;4.40;100.00
58769;BME280;44536;47.474;19.056;2023-04-08T13:27:36;100987.38;;;4.69;100.00
58769;BME280;44536;47.474;19.056;2023-04-08T13:30:39;100986.97;;;4.78;100.00
58769;BME280;44536;47.474;19.056;2023-04-08T13:33:41;100983.59;;;4.96;100.00
58769;BME280;44536;47.474;19.056;2023-04-08T13:36:44;100981.75;;;4.98;100.00
58769;BME280;44536;47.474;19.056;2023-04-08T13:39:46;100976.09;;;4.87;100.00
58769;BME280;44536;47.474;19.056;2023-04-08T13:42:49;100981.34;;;5.07;100.00
58769;BME280;44536;47.474;19.056;2023-04-08T13:45:51;100980.53;;;5.25;100.00
58769;BME280;44536;47.474;19.056;2023-04-08T13:48:53;100979.72;;;5.44;100.00
58769;BME280;44536;47.474;19.056;2023-04-08T13:51:56;100977.28;;;5.39;99.70
58769;BME280;44536;47.474;19.056;2023-04-08T13:54:59;100979.06;;;5.20;95.93
58769;BME280;44536;47.474;19.056;2023-04-08T13:58:01;100979.44;;;5.11;97.62
58769;BME280;44536;47.474;19.056;2023-04-08T14:01:12;100977.53;;;5.14;97.74
58769;BME280;44536;47.474;19.056;2023-04-08T14:04:15;100973.63;;;5.23;97.12
58769;BME280;44536;47.474;19.056;2023-04-08T14:07:17;100980.81;;;5.19;95.78
58769;BME280;44536;47.474;19.056;2023-04-08T14:10:21;100982.59;;;5.19;97.12
58769;BME280;44536;47.474;19.056;2023-04-08T14:13:23;100982.94;;;5.30;96.55
58769;BME280;44536;47.474;19.056;2023-04-08T14:16:26;100980.66;;;5.22;97.85
58769;BME280;44536;47.474;19.056;2023-04-08T14:19:29;100974.84;;;5.16;96.65
58769;BME280;44536;47.474;19.056;2023-04-08T14:22:31;100984.91;;;5.06;96.48
58769;BME280;44536;47.474;19.056;2023-04-08T14:25:33;100979.72;;;5.05;99.99
58769;BME280;44536;47.474;19.056;2023-04-08T14:28:36;100982.72;;;5.16;100.00
58769;BME280;44536;47.474;19.056;2023-04-08T14:31:38;100982.22;;;5.47;96.38
58769;BME280;44536;47.474;19.056;2023-04-08T14:34:41;100988.66;;;5.40;95.89
58769;BME280;44536;47.474;19.056;2023-04-08T14:37:43;100983.66;;;5.33;95.86
58769;BME280;44536;47.474;19.056;2023-04-08T14:40:46;100978.41;;;5.33;95.02
58769;BME280;44536;47.474;19.056;2023-04-08T14:43:48;100981.41;;;5.45;96.71
58769;BME280;44536;47.474;19.056;2023-04-08T14:46:50;100984.31;;;5.39;95.49
58769;BME280;44536;47.474;19.056;2023-04-08T14:49:53;100988.59;;;5.41;95.26
58769;BME280;44536;47.474;19.056;2023-04-08T14:52:55;100990.19;;;5.25;96.92
58769;BME280;44536;47.474;19.056;2023-04-08T14:55:58;100990.28;;;5.03;99.51
58769;BME280;44536;47.474;19.056;2023-04-08T14:59:00;100984.22;;;4.81;100.00
58769;BME280;44536;47.474;19.056;2023-04-08T15:02:03;100979.66;;;4.65;100.00
58769;BME280;44536;47.474;19.056;2023-04-08T15:05:05;100982.28;;;4.44;100.00
58769;BME280;44536;47.474;19.056;2023-04-08T15:08:08;100990.34;;;4.39;100.00
58769;BME280;44536;47.474;19.056;2023-04-08T15:11:10;100981.63;;;4.39;100.00
58769;BME280;44536;47.474;19.056;2023-04-08T15:14:13;100982.66;;;4.35;100.00
58769;BME280;44536;47.474;19.056;2023-04-08T15:17:15;100983.09;;;4.46;100.00
58769;BME280;44536;47.474;19.056;2023-04-08T15:20:18;100981.25;;;4.48;100.00
58769;BME280;44536;47.474;19.056;2023-04-08T15:23:21;100987.22;;;4.51;100.00
58769;BME280;44536;47.474;19.056;2023-04-08T15:26:23;100993.41;;;4.71;100.00
58769;BME280;44536;47.474;19.056;2023-04-08T15:29:26;100986.19;;;4.76;100.00
58769;BME280;44536;47.474;19.056;2023-04-08T15:32:28;100981.78;;;4.76;99.97
58769;BME280;44536;47.474;19.056;2023-04-08T15:35:31;100986.84;;;4.81;100.00
58769;BME280;44536;47.474;19.056;2023-04-08T15:38:34;100984.09;;;4.84;98.86
58769;BME280;44536;47.474;19.056;2023-04-08T15:41:36;100986.13;;;4.77;100.00
58769;BME280;44536;47.474;19.056;2023-04-08T15:44:39;100991.94;;;5.06;98.68
58769;BME280;44536;47.474;19.056;2023-04-08T15:47:42;101002.66;;;5.01;99.80
58769;BME280;44536;47.474;19.056;2023-04-08T15:50:44;101000.16;;;4.98;98.09
58769;BME280;44536;47.474;19.056;2023-04-08T15:53:48;100999.53;;;4.91;98.86
58769;BME280;44536;47.474;19.056;2023-04-08T15:56:52;101004.00;;;4.89;98.73